createdAt,value
2017-12-06T16:12:57.925Z,62.48
2017-12-06T16:15:33.041Z,62.81
2017-12-06T16:24:00.232Z,63.70
2017-12-06T16:26:43.169Z,63.38
2017-12-06T16:29:22.843Z,63.57
2017-12-06T16:32:13.772Z,63.93
2017-12-06T16:35:02.683Z,63.00
2017-12-06T16:37:46.649Z,62.31
2017-12-06T16:40:41.233Z,62.24
2017-12-06T16:43:24.232Z,62.74
2017-12-06T16:46:03.427Z,62.19
2017-12-06T16:51:33.873Z,62.54
2017-12-06T17:10:24.361Z,60.00
2017-12-06T17:12:52.392Z,60.77
2017-12-06T17:15:19.989Z,61.00
2017-12-06T17:17:47.529Z,61.80
2017-12-06T17:20:15.236Z,61.78
2017-12-06T17:22:42.761Z,61.64
2017-12-06T17:25:10.500Z,61.93
2017-12-06T17:27:38.188Z,61.75
2017-12-06T17:30:17.630Z,61.81
2017-12-06T17:32:45.290Z,61.97
2017-12-06T17:35:13.074Z,62.20
2017-12-06T17:37:40.668Z,62.22
2017-12-06T17:40:09.663Z,61.72
2017-12-06T17:42:37.217Z,62.29
2017-12-06T17:45:05.735Z,62.81
2017-12-06T17:47:33.462Z,62.03
2017-12-06T17:53:12.884Z,62.66
2017-12-06T17:55:40.469Z,62.44
2017-12-06T17:58:08.124Z,62.20
2017-12-06T18:00:35.936Z,62.26
2017-12-06T18:03:03.434Z,62.88
2017-12-06T18:05:31.053Z,62.55
2017-12-06T18:07:58.615Z,62.78
2017-12-06T18:10:26.130Z,62.51
2017-12-06T18:12:53.862Z,62.56
2017-12-06T18:15:21.404Z,63.14
2017-12-06T18:17:49.041Z,62.83
2017-12-06T18:20:16.780Z,62.65
2017-12-06T18:22:44.324Z,62.36
2017-12-06T18:25:11.820Z,62.18
2017-12-06T18:27:39.358Z,62.72
2017-12-06T18:30:06.949Z,62.52
2017-12-06T18:32:34.459Z,61.86
2017-12-06T18:35:02.057Z,62.15
2017-12-06T18:37:29.727Z,62.24
2017-12-06T18:42:31.428Z,63.41
2017-12-06T18:44:59.147Z,62.65
2017-12-06T18:47:26.662Z,63.50
2017-12-06T18:49:54.259Z,62.38
2017-12-06T18:52:21.914Z,62.84
2017-12-06T18:54:49.592Z,62.67
2017-12-06T18:57:17.133Z,62.28
2017-12-06T18:59:44.885Z,61.88
2017-12-06T19:02:12.726Z,61.97
2017-12-06T19:04:40.280Z,62.17
2017-12-06T19:07:07.868Z,62.18
2017-12-06T19:09:35.500Z,61.80
2017-12-06T19:12:04.315Z,61.97
2017-12-06T19:14:32.163Z,62.90
2017-12-06T19:17:00.347Z,62.90
2017-12-06T19:19:27.864Z,63.35
2017-12-06T19:21:56.448Z,63.36
2017-12-06T19:24:24.617Z,63.35
2017-12-06T19:26:53.275Z,63.63
2017-12-06T19:29:21.230Z,63.80
2017-12-06T19:31:49.515Z,63.86
2017-12-06T19:34:18.047Z,64.44
2017-12-06T19:36:46.327Z,63.91
2017-12-06T19:39:13.909Z,64.79
2017-12-06T19:41:42.082Z,65.02
2017-12-06T19:44:10.421Z,64.08
2017-12-06T19:46:38.534Z,63.64
2017-12-06T19:49:06.814Z,63.08
2017-12-06T19:51:34.985Z,62.92
2017-12-06T19:54:02.535Z,63.29
2017-12-06T19:56:30.061Z,63.32
2017-12-06T19:58:57.621Z,63.14
2017-12-06T20:01:25.193Z,62.67
2017-12-06T20:03:52.770Z,63.13
2017-12-06T20:06:20.565Z,63.96
2017-12-06T20:08:49.123Z,63.86
2017-12-06T20:11:17.685Z,63.88
2017-12-06T20:13:46.086Z,63.52
2017-12-06T20:16:14.535Z,63.66
2017-12-06T20:18:42.133Z,63.34
2017-12-06T20:21:09.710Z,63.22
2017-12-06T20:23:37.272Z,63.18
2017-12-06T20:26:05.584Z,62.94
2017-12-06T20:28:33.711Z,63.08
2017-12-06T20:31:01.220Z,63.44
2017-12-06T20:33:29.655Z,63.51
2017-12-06T20:35:57.220Z,63.72
2017-12-06T20:38:24.840Z,62.85
2017-12-06T20:40:52.939Z,63.35
2017-12-06T20:43:20.910Z,63.49
2017-12-06T20:45:48.921Z,63.78
2017-12-06T20:48:16.734Z,63.55
2017-12-06T20:50:53.835Z,63.47
2017-12-06T20:56:14.456Z,63.10
2017-12-06T20:58:42.973Z,63.32
2017-12-06T21:01:11.043Z,63.48
2017-12-06T21:03:38.860Z,63.36
2017-12-06T21:06:07.797Z,64.18
2017-12-06T21:08:37.338Z,65.15
2017-12-06T21:11:05.930Z,64.49
2017-12-06T21:13:34.916Z,64.27
2017-12-06T21:16:02.901Z,64.25
2017-12-06T21:18:31.008Z,63.91
2017-12-06T21:20:58.791Z,63.64
2017-12-06T21:23:27.217Z,63.43
2017-12-06T21:25:55.633Z,63.68
2017-12-06T21:28:23.792Z,65.01
2017-12-06T21:30:52.408Z,64.45
2017-12-06T21:33:21.846Z,64.67
2017-12-06T21:35:49.541Z,64.23
2017-12-06T21:38:18.390Z,64.86
2017-12-06T21:40:46.636Z,64.78
2017-12-06T21:43:16.221Z,65.26
2017-12-06T21:45:43.949Z,65.24
2017-12-06T21:48:11.819Z,65.33
2017-12-06T21:50:39.623Z,64.47
2017-12-06T21:53:08.681Z,65.00
2017-12-06T21:55:36.323Z,65.30
2017-12-06T21:58:04.196Z,64.93
2017-12-06T22:00:32.031Z,65.17
2017-12-06T22:03:00.068Z,65.15
2017-12-06T22:05:29.205Z,65.69
2017-12-06T22:07:57.076Z,66.18
2017-12-06T22:10:27.309Z,65.57
2017-12-06T22:12:55.056Z,65.39
2017-12-06T22:15:22.857Z,65.75
2017-12-06T22:17:50.769Z,65.64
2017-12-06T22:20:18.807Z,66.48
2017-12-06T22:22:47.425Z,66.63
2017-12-06T22:25:15.375Z,66.81
2017-12-06T22:27:44.682Z,66.78
2017-12-06T22:30:13.358Z,67.17
2017-12-06T22:32:43.495Z,66.68
2017-12-06T22:35:14.511Z,67.13
2017-12-06T22:37:42.449Z,67.50
2017-12-06T22:40:10.545Z,67.23
2017-12-06T22:42:38.461Z,66.76
2017-12-06T22:45:16.337Z,68.25
2017-12-06T22:47:46.131Z,68.14
2017-12-06T22:50:13.734Z,67.71
2017-12-06T22:52:41.426Z,67.79
2017-12-06T22:55:11.961Z,67.09
2017-12-06T22:57:44.363Z,67.14
2017-12-06T23:00:13.152Z,67.03
2017-12-06T23:02:41.327Z,67.07
2017-12-06T23:05:09.164Z,68.11
2017-12-06T23:07:36.950Z,67.40
2017-12-06T23:10:05.420Z,66.86
2017-12-06T23:12:34.487Z,67.20
2017-12-06T23:15:03.442Z,67.34
2017-12-06T23:17:31.400Z,67.71
2017-12-06T23:20:00.254Z,68.55
2017-12-06T23:22:29.294Z,68.94
2017-12-06T23:24:57.075Z,69.22
2017-12-06T23:27:25.865Z,69.39
2017-12-06T23:29:54.643Z,68.33
2017-12-06T23:32:23.629Z,67.58
2017-12-06T23:34:53.178Z,66.98
2017-12-06T23:37:22.058Z,66.89
2017-12-06T23:39:50.912Z,66.95
2017-12-06T23:42:18.931Z,67.25
2017-12-06T23:44:46.700Z,67.90
2017-12-06T23:47:14.652Z,68.22
2017-12-06T23:49:42.438Z,67.86
2017-12-06T23:52:16.616Z,68.17
2017-12-06T23:55:08.711Z,68.11
2017-12-06T23:57:36.668Z,68.22
